Noordam — PHET — position and weather

sailwx.info

Track history (hours):
 
Tides and Currents Weather Stations Pressure Air Temp Water Temp Dewpoint Dewpoint Depression Visibility Wind Speed Wind Dir Waves Ship Positions

Noordam (Netherlands)

Ship's website: http://www.hollandamerica.com/cruiseships/Noordam

Last reported at 2018-Aug-16 15:00 UTC. Time now 2018-Aug-16 20:16 UTC.
Position N 59°24' W 135°18'.

Type: Passenger vessel. MMSI: 246028000.

Wind from 280 at 12 knots

Barometer 1017.3 mb
Air temperature 13.2 ° C
Visibility: greater than 10.8 NM
Water temperature 10.0 ° C

Date/timePositionNaut miles runAvg speedWind from/ knotsBaromVisibWave heightAir tempDewpointWater temp
2018-Aug-16 15:00N 59°24' W 135°18'0 0.0 280 / 121017.310.8 13.2 10.0
2018-Aug-16 14:00N 59°24' W 135°18'78 9.8 230 / 71017.010.8 13.2 8.211.0
2018-Aug-16 06:00N 58°12' W 134°18'114 9.5 120 / 31019.310.8 12.0
2018-Aug-15 18:00N 56°18' W 134°24'14672.9 150 / 51019.627.0 13.610.820.0
2018-Aug-15 16:00N 58°12' W 137°12'102102.2 330 / 51019.427.0 11.0 9.012.0
2018-Aug-15 15:00N 58°00' W 134°00'3718.6 160 / 81018.810.8 10.4 8.811.0
2018-Aug-15 13:00N 57°24' W 133°42'1515.4 130 / 21018.1 5.4 10.0 7.712.0
2018-Aug-15 12:00N 57°12' W 134°00'67861357.2 040 / 81017.927.0 10.9 7.112.0
2018-Aug-15 07:00S 55°54' W 134°18'67322244.1 280 / 191018.310.8 13.0 8.0
2018-Aug-15 04:00N 56°18' W 133°12'81 6.7 230 / 161017.310.8 14.0 8.0
2018-Aug-14 16:00N 55°18' W 131°36'15 5.0 110 / 91016.9 2.2 14.0 14.0
2018-Aug-14 13:00N 55°12' W 131°12'1611.6 160 / 201016.8 2.2 13.212.820.0
2018-Aug-14 11:39N 54°57' W 131°08'211.5
2018-Aug-14 11:28N 54°55' W 131°07'511.6
2018-Aug-14 11:00N 54°49' W 131°09'611.7
2018-Aug-14 10:27N 54°43' W 131°13'510.5
2018-Aug-14 09:59N 54°40' W 131°19'510.8
2018-Aug-14 09:29N 54°37' W 131°28'611.8
2018-Aug-14 08:58N 54°35' W 131°37'511.6
2018-Aug-14 08:30N 54°31' W 131°44'1610.9
2018-Aug-14 07:04N 54°24' W 131°20'112.7
2018-Aug-14 07:00N 54°24' W 131°18'165.7 290 / 121023.3 2.2 12.012.0
2018-Aug-14 06:59N 54°23' W 131°18'612.6
2018-Aug-14 06:30N 54°21' W 131°08'713.2
2018-Aug-14 06:00N 54°19' W 130°58'611.9
2018-Aug-14 05:30N 54°17' W 130°48'510.1
2018-Aug-14 05:00N 54°14' W 130°42'6365.1
2018-Aug-14 05:00N 54°18' W 130°48'1326.9 290 / 131023.3 0.0 12.012.0
2018-Aug-14 04:30N 54°10' W 130°31'815.8
2018-Aug-14 04:00N 54°05' W 130°19'714.7
2018-Aug-14 03:30N 53°59' W 130°13'714.3
2018-Aug-14 03:00N 53°53' W 130°06'714.5
2018-Aug-14 02:30N 53°48' W 129°58'713.9
2018-Aug-14 02:00N 53°43' W 129°49'5914.8
2018-Aug-13 22:00N 52°48' W 129°12'1913.3 280 / 51021.810.8 14.0 12.0
2018-Aug-13 20:35N 52°33' W 128°53'116.8
2018-Aug-13 20:30N 52°32' W 128°53'816.5
2018-Aug-13 20:00N 52°24' W 128°51'816.6
2018-Aug-13 19:30N 52°16' W 128°48'1019.1
2018-Aug-13 19:00N 52°07' W 128°44'1019.5
2018-Aug-13 18:30N 51°57' W 128°40'1019.3
2018-Aug-13 18:00N 51°48' W 128°36'919.2
2018-Aug-13 17:30N 51°39' W 128°32'1019.2
2018-Aug-13 17:00N 51°29' W 128°27'918.8
2018-Aug-13 16:30N 51°20' W 128°23'918.8
2018-Aug-13 16:00N 51°11' W 128°19'816.5
2018-Aug-13 15:30N 51°07' W 128°08'918.0
2018-Aug-13 15:00N 51°02' W 127°55'5791.0
2018-Aug-13 15:00N 51°00' W 127°48'5 9.9 280 / 71022.3 0.3 12.212.012.0
2018-Aug-13 14:30N 50°56' W 127°43'1020.9
2018-Aug-13 14:00N 50°51' W 127°29'4268.5
2018-Aug-13 14:00N 50°48' W 127°24'1616.3 110 / 31022.4 0.3 12.111.714.0
2018-Aug-13 13:00N 50°42' W 127°00'1118.0 040 / 11022.1 0.3 12.111.114.0
2018-Aug-13 12:23N 50°37' W 126°45'614.4
2018-Aug-13 11:57N 50°31' W 126°39'918.1
2018-Aug-13 11:26N 50°30' W 126°25'3816.7
2018-Aug-13 09:09N 50°20' W 125°27'212.5
2018-Aug-13 09:01N 50°19' W 125°25'816.6
2018-Aug-13 08:30N 50°11' W 125°22'713.9
2018-Aug-13 08:00N 50°05' W 125°16'815.7
2018-Aug-13 07:31N 49°58' W 125°11'714.6
2018-Aug-13 07:01N 49°53' W 125°02'714.2
2018-Aug-13 06:30N 49°48' W 124°54'714.1
2018-Aug-13 06:00N 49°44' W 124°47'814.9
2018-Aug-13 05:30N 49°38' W 124°39'714.9
2018-Aug-13 05:00N 49°32' W 124°32'714.2
2018-Aug-13 04:30N 49°27' W 124°24'714.0
2018-Aug-13 04:00N 49°25' W 124°14'714.1
2018-Aug-13 03:30N 49°23' W 124°03'714.2
2018-Aug-13 03:00N 49°21' W 123°53'714.0
2018-Aug-13 02:30N 49°20' W 123°42'714.3
2018-Aug-13 02:00N 49°19' W 123°31'714.2
2018-Aug-13 01:30N 49°19' W 123°20'713.6
2018-Aug-13 01:00N 49°19' W 123°10'3 5.7
2018-Aug-13 00:30N 49°17' W 123°07'0 0.0
2018-Aug-12 23:58N 49°17' W 123°07'0 0.0
2018-Aug-12 23:28N 49°17' W 123°07'0 0.0
2018-Aug-12 22:58N 49°17' W 123°07'0 0.0
2018-Aug-12 22:28N 49°17' W 123°07'0 0.0
2018-Aug-12 21:58N 49°17' W 123°07'0 0.0
2018-Aug-12 21:28N 49°17' W 123°07'0 0.0
2018-Aug-12 20:58N 49°17' W 123°07'0 0.0
2018-Aug-12 20:28N 49°17' W 123°07'0 0.0
2018-Aug-12 19:58N 49°17' W 123°07'0 0.0
2018-Aug-12 19:28N 49°17' W 123°07'0 0.0
2018-Aug-12 18:58N 49°17' W 123°07'0 0.0
2018-Aug-12 18:28N 49°17' W 123°07'0 0.0
2018-Aug-12 17:58N 49°17' W 123°07'0 0.0
2018-Aug-12 17:28N 49°17' W 123°07'0 0.0
2018-Aug-12 16:58N 49°17' W 123°07'0 0.0
2018-Aug-12 16:28N 49°17' W 123°07'0 0.0
2018-Aug-12 15:58N 49°17' W 123°07'0 0.0
2018-Aug-12 15:28N 49°17' W 123°07'0 0.0
2018-Aug-12 14:58N 49°17' W 123°07'0 0.0
2018-Aug-12 14:28N 49°17' W 123°07'0 0.0
2018-Aug-12 14:00N 49°17' W 123°07'1 1.0
2018-Aug-12 13:30N 49°18' W 123°06'4 7.5
2018-Aug-12 13:00N 49°19' W 123°12'5 9.6
2018-Aug-12 12:30N 49°18' W 123°19'5 9.5
2018-Aug-12 11:59N 49°18' W 123°27'5 9.8
2018-Aug-12 11:30N 49°18' W 123°34'510.3
2018-Aug-12 11:00N 49°19' W 123°42'510.4
2018-Aug-12 10:30N 49°20' W 123°50'4 9.0
2018-Aug-12 10:00N 49°21' W 123°56'4 8.5
2018-Aug-12 09:30N 49°22' W 124°03'4 8.5
2018-Aug-12 09:00N 49°23' W 124°09'4 8.6
2018-Aug-12 08:30N 49°24' W 124°15'5 9.1
2018-Aug-12 08:00N 49°26' W 124°22'5 9.4
2018-Aug-12 07:30N 49°29' W 124°28'4 8.9
2018-Aug-12 07:00N 49°32' W 124°33'4 8.7
2018-Aug-12 06:30N 49°35' W 124°37'4 8.4
2018-Aug-12 06:00N 49°38' W 124°41'4257.2
2018-Aug-12 06:00N 49°36' W 124°36'816.6 350 / 71017.310.8 19.019.0
2018-Aug-12 05:30N 49°41' W 124°45'4 8.1
2018-Aug-12 05:00N 49°44' W 124°50'3309.6
2018-Aug-12 05:00N 49°42' W 124°48'613.3 340 / 141017.3 5.4 19.019.0
2018-Aug-12 04:30N 49°47' W 124°54'4 8.3
2018-Aug-12 04:00N 49°50' W 124°58'4265.6
2018-Aug-12 04:00N 49°48' W 124°54'815.9 320 / 51017.3 5.4 17.017.0
2018-Aug-12 03:30N 49°53' W 125°03'4 8.7
2018-Aug-12 03:00N 49°56' W 125°08'2146.2
2018-Aug-12 03:00N 49°54' W 125°06'713.4 340 / 101017.3 5.4 18.018.010.0
2018-Aug-12 02:29N 49°60' W 125°12'4 7.3
2018-Aug-12 01:59N 50°03' W 125°14'510.3
2018-Aug-12 01:30N 50°07' W 125°19'612.4
2018-Aug-12 01:01N 50°13' W 125°22'713.5
2018-Aug-12 00:28N 50°20' W 125°25'713.9
2018-Aug-11 23:56N 50°22' W 125°36'614.7
2018-Aug-11 23:30N 50°22' W 125°46'2418.5
2018-Aug-11 22:12N 50°30' W 126°22'420.0
2018-Aug-11 22:01N 50°30' W 126°28'917.2
2018-Aug-11 21:30N 50°33' W 126°41'1318.3
2018-Aug-11 20:48N 50°42' W 126°56'721.6
2018-Aug-11 20:29N 50°44' W 127°06'1121.7
2018-Aug-11 20:00N 50°48' W 127°21'1122.3
2018-Aug-11 19:30N 50°53' W 127°36'1121.4
2018-Aug-11 19:00N 50°60' W 127°50'1121.2
2018-Aug-11 18:30N 51°06' W 128°04'1020.8
2018-Aug-11 18:00N 51°12' W 128°17'030.0
2018-Aug-11 18:00N 51°12' W 128°18'1020.5 250 / 141016.710.8 13.912.212.0
2018-Aug-11 17:30N 51°18' W 128°31'1020.6
2018-Aug-11 17:00N 51°24' W 128°44'1020.4
2018-Aug-11 16:30N 51°30' W 128°58'1020.0
2018-Aug-11 16:00N 51°35' W 129°11'918.9
2018-Aug-11 15:30N 51°41' W 129°23'918.1
2018-Aug-11 15:00N 51°48' W 129°32'1121.7
2018-Aug-11 14:30N 51°58' W 129°40'1322.0
2018-Aug-11 13:54N 52°10' W 129°49'1922.0
2018-Aug-11 13:02N 52°27' W 130°02'322.5
2018-Aug-11 12:55N 52°30' W 130°03'2322.6
2018-Aug-11 11:55N 52°50' W 130°18'2622.8
2018-Aug-11 10:45N 53°14' W 130°37'723.1
2018-Aug-11 10:28N 53°20' W 130°42'1123.0
2018-Aug-11 09:59N 53°31' W 130°49'1122.8
2018-Aug-11 09:30N 53°41' W 130°55'1020.5
2018-Aug-11 09:00N 53°51' W 131°01'1019.0
2018-Aug-11 08:31N 54°00' W 131°02'1019.9
2018-Aug-11 08:00N 54°10' W 131°02'918.1
2018-Aug-11 07:30N 54°19' W 130°57'714.5
2018-Aug-11 07:00N 54°25' W 131°03'1020.0
2018-Aug-11 06:30N 54°33' W 131°14'1019.2
2018-Aug-11 05:58N 54°43' W 131°13'918.9
2018-Aug-11 05:30N 54°51' W 131°08'31 4.2
2018-Aug-10 22:00N 55°18' W 131°36'0 0.0 310 / 151022.310.8 21.0
2018-Aug-10 20:00N 55°18' W 131°36'0 0.0 280 / 121019.510.8 20.612.112.0
2018-Aug-10 19:00N 55°18' W 131°36'30 7.5 290 / 151019.610.8 19.514.212.0
2018-Aug-10 15:00N 55°36' W 132°18'2120.7 140 / 61019.110.8 12.3 14.0
2018-Aug-10 14:00N 55°54' W 132°36'9111.3 170 / 51018.610.8 12.8 14.0
2018-Aug-10 06:00N 57°12' W 134°00'1515.4 240 / 221013.710.8 13.210.912.0
2018-Aug-10 05:00N 57°24' W 133°42'2424.2 220 / 221013.110.8 13.210.312.0
2018-Aug-10 04:00N 57°48' W 133°48'36 4.4 170 / 241012.110.8 12.311.012.0
2018-Aug-09 20:00N 58°18' W 134°24'0 0.0 140 / 101005.910.8 14.314.112.0
2018-Aug-09 19:00N 58°18' W 134°24'44 3.7 130 / 121005.810.8 14.814.512.0
2018-Aug-09 07:00N 58°54' W 135°12'1212.0 200 / 291005.010.8 14.013.812.0
2018-Aug-09 06:00N 59°06' W 135°12'9 2.1 160 / 221006.0 5.4 13.613.212.0
2018-Aug-09 02:00N 59°12' W 135°24'27401370.2 140 / 201007.3 2.2 14.0 13.0
2018-Aug-09 00:00N 59°12' E 135°24'2774198.1 170 / 161009.3 5.4 14.0 10.0
2018-Aug-08 10:00N 58°36' W 135°06'3010.1 160 / 211008.3 5.4 14.3
2018-Aug-08 07:00N 58°06' W 135°00'13 8.4 150 / 371009.210.8 13.913.412.0
2018-Aug-08 05:27N 58°11' W 135°23'1 2.5
2018-Aug-08 05:00N 58°12' W 135°24'3508.6 120 / 171010.110.8 15.014.812.0
2018-Aug-08 04:59N 58°13' W 135°29'4 8.8
2018-Aug-08 04:30N 58°15' W 135°37'5 9.6
2018-Aug-08 04:00N 58°17' W 135°44'179.2
2018-Aug-08 04:00N 58°18' W 135°42'611.9 120 / 251010.410.8 14.213.812.0
2018-Aug-08 03:29N 58°19' W 135°53'5 9.8
2018-Aug-08 03:00N 58°23' W 135°58'5 9.2
2018-Aug-08 02:30N 58°28' W 136°02'612.8
2018-Aug-08 02:00N 58°34' W 136°04'713.1
2018-Aug-08 01:30N 58°40' W 136°06'612.9
2018-Aug-08 01:00N 58°44' W 136°15'813.0
2018-Aug-08 00:22N 58°49' W 136°29'14 3.2
2018-Aug-07 20:00N 58°54' W 136°54'1212.4 280 / 91015.3 2.2 8.3 8.3 8.0
2018-Aug-07 19:00N 58°54' W 136°30'910.8 010 / 81015.3 5.4 11.511.511.0
2018-Aug-07 18:07N 58°46' W 136°21'432.9
2018-Aug-07 18:00N 58°42' W 136°18'220.3 110 / 251015.3 5.4 13.013.012.0
2018-Aug-07 17:53N 58°44' W 136°16'615.0
2018-Aug-07 17:30N 58°39' W 136°09'714.9
2018-Aug-07 17:01N 58°32' W 136°04'3171.9
2018-Aug-07 17:00N 58°30' W 136°00'5 9.8 150 / 161014.2 2.2 12.5
2018-Aug-07 16:30N 58°25' W 135°58'612.3
2018-Aug-07 16:00N 58°20' W 136°03'2713.5
2018-Aug-07 14:00N 58°06' W 136°48'8412.0 190 / 341012.5 2.2 13.2
2018-Aug-07 07:00N 58°36' W 139°18'1413.9 190 / 101013.6 1.1 13.613.212.0
2018-Aug-07 06:00N 58°42' W 139°42'1212.5 220 / 201013.7 0.5 13.813.612.0
2018-Aug-07 05:00N 58°42' W 140°06'1212.5 240 / 151013.6 2.2 13.713.512.0
2018-Aug-07 04:00N 58°42' W 140°30'2612.8 220 / 201013.1 1.1 13.813.412.0
2018-Aug-07 02:00N 58°48' W 141°18'1212.4 230 / 171014.1 2.2 14.0
2018-Aug-07 01:00N 58°48' W 141°42'3210.5 210 / 171014.0 5.4 14.1
2018-Aug-06 22:00N 58°54' W 142°42'3115.5 230 / 191017.3 5.4 14.0 10.0
2018-Aug-06 20:00N 58°54' W 143°42'1413.8 220 / 231014.310.8 13.813.412.0
2018-Aug-06 19:00N 59°00' W 144°06'3812.5 220 / 251014.010.8 13.613.212.0
2018-Aug-06 16:00N 59°06' W 145°18'1515.4 220 / 241013.7 5.4 13.0 13.0
2018-Aug-06 15:00N 59°06' W 145°48'   210 / 271014.1 5.4 13.0 13.0
Track history (hours):
 
Tides and Currents Weather Stations Pressure Air Temp Water Temp Dewpoint Dewpoint Depression Visibility Wind Speed Wind Dir Waves Ship Positions

Noordam (Netherlands)

Ship's website: http://www.hollandamerica.com/cruiseships/Noordam

Last reported at 2018-Aug-16 15:00 UTC. Time now 2018-Aug-16 20:16 UTC.
Position N 59°24' W 135°18'.

Type: Passenger vessel. MMSI: 246028000.

Wind from 280 at 12 knots

Barometer 1017.3 mb
Air temperature 13.2 ° C
Visibility: greater than 10.8 NM
Water temperature 10.0 ° C

Date/timePositionNaut miles runAvg speedWind from/ knotsBaromVisibWave heightAir tempDewpointWater temp
2018-Aug-16 15:00N 59°24' W 135°18'0 0.0 280 / 121017.310.8 13.2 10.0
2018-Aug-16 14:00N 59°24' W 135°18'78 9.8 230 / 71017.010.8 13.2 8.211.0
2018-Aug-16 06:00N 58°12' W 134°18'114 9.5 120 / 31019.310.8 12.0
2018-Aug-15 18:00N 56°18' W 134°24'14672.9 150 / 51019.627.0 13.610.820.0
2018-Aug-15 16:00N 58°12' W 137°12'102102.2 330 / 51019.427.0 11.0 9.012.0
2018-Aug-15 15:00N 58°00' W 134°00'3718.6 160 / 81018.810.8 10.4 8.811.0
2018-Aug-15 13:00N 57°24' W 133°42'1515.4 130 / 21018.1 5.4 10.0 7.712.0
2018-Aug-15 12:00N 57°12' W 134°00'67861357.2 040 / 81017.927.0 10.9 7.112.0
2018-Aug-15 07:00S 55°54' W 134°18'67322244.1 280 / 191018.310.8 13.0 8.0
2018-Aug-15 04:00N 56°18' W 133°12'81 6.7 230 / 161017.310.8 14.0 8.0
2018-Aug-14 16:00N 55°18' W 131°36'15 5.0 110 / 91016.9 2.2 14.0 14.0
2018-Aug-14 13:00N 55°12' W 131°12'1611.6 160 / 201016.8 2.2 13.212.820.0
2018-Aug-14 11:39N 54°57' W 131°08'211.5
2018-Aug-14 11:28N 54°55' W 131°07'511.6
2018-Aug-14 11:00N 54°49' W 131°09'611.7
2018-Aug-14 10:27N 54°43' W 131°13'510.5
2018-Aug-14 09:59N 54°40' W 131°19'510.8
2018-Aug-14 09:29N 54°37' W 131°28'611.8
2018-Aug-14 08:58N 54°35' W 131°37'511.6
2018-Aug-14 08:30N 54°31' W 131°44'1610.9
2018-Aug-14 07:04N 54°24' W 131°20'112.7
2018-Aug-14 07:00N 54°24' W 131°18'165.7 290 / 121023.3 2.2 12.012.0
2018-Aug-14 06:59N 54°23' W 131°18'612.6
2018-Aug-14 06:30N 54°21' W 131°08'713.2
2018-Aug-14 06:00N 54°19' W 130°58'611.9
2018-Aug-14 05:30N 54°17' W 130°48'510.1
2018-Aug-14 05:00N 54°14' W 130°42'6365.1
2018-Aug-14 05:00N 54°18' W 130°48'1326.9 290 / 131023.3 0.0 12.012.0
2018-Aug-14 04:30N 54°10' W 130°31'815.8
2018-Aug-14 04:00N 54°05' W 130°19'714.7
2018-Aug-14 03:30N 53°59' W 130°13'714.3
2018-Aug-14 03:00N 53°53' W 130°06'714.5
2018-Aug-14 02:30N 53°48' W 129°58'713.9
2018-Aug-14 02:00N 53°43' W 129°49'5914.8
2018-Aug-13 22:00N 52°48' W 129°12'1913.3 280 / 51021.810.8 14.0 12.0
2018-Aug-13 20:35N 52°33' W 128°53'116.8
2018-Aug-13 20:30N 52°32' W 128°53'816.5
2018-Aug-13 20:00N 52°24' W 128°51'816.6
2018-Aug-13 19:30N 52°16' W 128°48'1019.1
2018-Aug-13 19:00N 52°07' W 128°44'1019.5
2018-Aug-13 18:30N 51°57' W 128°40'1019.3
2018-Aug-13 18:00N 51°48' W 128°36'919.2
2018-Aug-13 17:30N 51°39' W 128°32'1019.2
2018-Aug-13 17:00N 51°29' W 128°27'918.8
2018-Aug-13 16:30N 51°20' W 128°23'918.8
2018-Aug-13 16:00N 51°11' W 128°19'816.5
2018-Aug-13 15:30N 51°07' W 128°08'918.0
2018-Aug-13 15:00N 51°02' W 127°55'5791.0
2018-Aug-13 15:00N 51°00' W 127°48'5 9.9 280 / 71022.3 0.3 12.212.012.0
2018-Aug-13 14:30N 50°56' W 127°43'1020.9
2018-Aug-13 14:00N 50°51' W 127°29'4268.5
2018-Aug-13 14:00N 50°48' W 127°24'1616.3 110 / 31022.4 0.3 12.111.714.0
2018-Aug-13 13:00N 50°42' W 127°00'1118.0 040 / 11022.1 0.3 12.111.114.0
2018-Aug-13 12:23N 50°37' W 126°45'614.4
2018-Aug-13 11:57N 50°31' W 126°39'918.1
2018-Aug-13 11:26N 50°30' W 126°25'3816.7
2018-Aug-13 09:09N 50°20' W 125°27'212.5
2018-Aug-13 09:01N 50°19' W 125°25'816.6
2018-Aug-13 08:30N 50°11' W 125°22'713.9
2018-Aug-13 08:00N 50°05' W 125°16'815.7
2018-Aug-13 07:31N 49°58' W 125°11'714.6
2018-Aug-13 07:01N 49°53' W 125°02'714.2
2018-Aug-13 06:30N 49°48' W 124°54'714.1
2018-Aug-13 06:00N 49°44' W 124°47'814.9
2018-Aug-13 05:30N 49°38' W 124°39'714.9
2018-Aug-13 05:00N 49°32' W 124°32'714.2
2018-Aug-13 04:30N 49°27' W 124°24'714.0
2018-Aug-13 04:00N 49°25' W 124°14'714.1
2018-Aug-13 03:30N 49°23' W 124°03'714.2
2018-Aug-13 03:00N 49°21' W 123°53'714.0
2018-Aug-13 02:30N 49°20' W 123°42'714.3
2018-Aug-13 02:00N 49°19' W 123°31'714.2
2018-Aug-13 01:30N 49°19' W 123°20'713.6
2018-Aug-13 01:00N 49°19' W 123°10'3 5.7
2018-Aug-13 00:30N 49°17' W 123°07'0 0.0
2018-Aug-12 23:58N 49°17' W 123°07'0 0.0
2018-Aug-12 23:28N 49°17' W 123°07'0 0.0
2018-Aug-12 22:58N 49°17' W 123°07'0 0.0
2018-Aug-12 22:28N 49°17' W 123°07'0 0.0
2018-Aug-12 21:58N 49°17' W 123°07'0 0.0
2018-Aug-12 21:28N 49°17' W 123°07'0 0.0
2018-Aug-12 20:58N 49°17' W 123°07'0 0.0
2018-Aug-12 20:28N 49°17' W 123°07'0 0.0
2018-Aug-12 19:58N 49°17' W 123°07'0 0.0
2018-Aug-12 19:28N 49°17' W 123°07'0 0.0
2018-Aug-12 18:58N 49°17' W 123°07'0 0.0
2018-Aug-12 18:28N 49°17' W 123°07'0 0.0
2018-Aug-12 17:58N 49°17' W 123°07'0 0.0
2018-Aug-12 17:28N 49°17' W 123°07'0 0.0
2018-Aug-12 16:58N 49°17' W 123°07'0 0.0
2018-Aug-12 16:28N 49°17' W 123°07'0 0.0
2018-Aug-12 15:58N 49°17' W 123°07'0 0.0
2018-Aug-12 15:28N 49°17' W 123°07'0 0.0
2018-Aug-12 14:58N 49°17' W 123°07'0 0.0
2018-Aug-12 14:28N 49°17' W 123°07'0 0.0
2018-Aug-12 14:00N 49°17' W 123°07'1 1.0
2018-Aug-12 13:30N 49°18' W 123°06'4 7.5
2018-Aug-12 13:00N 49°19' W 123°12'5 9.6
2018-Aug-12 12:30N 49°18' W 123°19'5 9.5
2018-Aug-12 11:59N 49°18' W 123°27'5 9.8
2018-Aug-12 11:30N 49°18' W 123°34'510.3
2018-Aug-12 11:00N 49°19' W 123°42'510.4
2018-Aug-12 10:30N 49°20' W 123°50'4 9.0
2018-Aug-12 10:00N 49°21' W 123°56'4 8.5
2018-Aug-12 09:30N 49°22' W 124°03'4 8.5
2018-Aug-12 09:00N 49°23' W 124°09'4 8.6
2018-Aug-12 08:30N 49°24' W 124°15'5 9.1
2018-Aug-12 08:00N 49°26' W 124°22'5 9.4
2018-Aug-12 07:30N 49°29' W 124°28'4 8.9
2018-Aug-12 07:00N 49°32' W 124°33'4 8.7
2018-Aug-12 06:30N 49°35' W 124°37'4 8.4
2018-Aug-12 06:00N 49°38' W 124°41'4257.2
2018-Aug-12 06:00N 49°36' W 124°36'816.6 350 / 71017.310.8 19.019.0
2018-Aug-12 05:30N 49°41' W 124°45'4 8.1
2018-Aug-12 05:00N 49°44' W 124°50'3309.6
2018-Aug-12 05:00N 49°42' W 124°48'613.3 340 / 141017.3 5.4 19.019.0
2018-Aug-12 04:30N 49°47' W 124°54'4 8.3
2018-Aug-12 04:00N 49°50' W 124°58'4265.6
2018-Aug-12 04:00N 49°48' W 124°54'815.9 320 / 51017.3 5.4 17.017.0
2018-Aug-12 03:30N 49°53' W 125°03'4 8.7
2018-Aug-12 03:00N 49°56' W 125°08'2146.2
2018-Aug-12 03:00N 49°54' W 125°06'713.4 340 / 101017.3 5.4 18.018.010.0
2018-Aug-12 02:29N 49°60' W 125°12'4 7.3
2018-Aug-12 01:59N 50°03' W 125°14'510.3
2018-Aug-12 01:30N 50°07' W 125°19'612.4
2018-Aug-12 01:01N 50°13' W 125°22'713.5
2018-Aug-12 00:28N 50°20' W 125°25'713.9
2018-Aug-11 23:56N 50°22' W 125°36'614.7
2018-Aug-11 23:30N 50°22' W 125°46'2418.5
2018-Aug-11 22:12N 50°30' W 126°22'420.0
2018-Aug-11 22:01N 50°30' W 126°28'917.2
2018-Aug-11 21:30N 50°33' W 126°41'1318.3
2018-Aug-11 20:48N 50°42' W 126°56'721.6
2018-Aug-11 20:29N 50°44' W 127°06'1121.7
2018-Aug-11 20:00N 50°48' W 127°21'1122.3
2018-Aug-11 19:30N 50°53' W 127°36'1121.4
2018-Aug-11 19:00N 50°60' W 127°50'1121.2
2018-Aug-11 18:30N 51°06' W 128°04'1020.8
2018-Aug-11 18:00N 51°12' W 128°17'030.0
2018-Aug-11 18:00N 51°12' W 128°18'1020.5 250 / 141016.710.8 13.912.212.0
2018-Aug-11 17:30N 51°18' W 128°31'1020.6
2018-Aug-11 17:00N 51°24' W 128°44'1020.4
2018-Aug-11 16:30N 51°30' W 128°58'1020.0
2018-Aug-11 16:00N 51°35' W 129°11'918.9
2018-Aug-11 15:30N 51°41' W 129°23'918.1
2018-Aug-11 15:00N 51°48' W 129°32'1121.7
2018-Aug-11 14:30N 51°58' W 129°40'1322.0
2018-Aug-11 13:54N 52°10' W 129°49'1922.0
2018-Aug-11 13:02N 52°27' W 130°02'322.5
2018-Aug-11 12:55N 52°30' W 130°03'2322.6
2018-Aug-11 11:55N 52°50' W 130°18'2622.8
2018-Aug-11 10:45N 53°14' W 130°37'723.1
2018-Aug-11 10:28N 53°20' W 130°42'1123.0
2018-Aug-11 09:59N 53°31' W 130°49'1122.8
2018-Aug-11 09:30N 53°41' W 130°55'1020.5
2018-Aug-11 09:00N 53°51' W 131°01'1019.0
2018-Aug-11 08:31N 54°00' W 131°02'1019.9
2018-Aug-11 08:00N 54°10' W 131°02'918.1
2018-Aug-11 07:30N 54°19' W 130°57'714.5
2018-Aug-11 07:00N 54°25' W 131°03'1020.0
2018-Aug-11 06:30N 54°33' W 131°14'1019.2
2018-Aug-11 05:58N 54°43' W 131°13'918.9
2018-Aug-11 05:30N 54°51' W 131°08'31 4.2
2018-Aug-10 22:00N 55°18' W 131°36'0 0.0 310 / 151022.310.8 21.0
2018-Aug-10 20:00N 55°18' W 131°36'0 0.0 280 / 121019.510.8 20.612.112.0
2018-Aug-10 19:00N 55°18' W 131°36'30 7.5 290 / 151019.610.8 19.514.212.0
2018-Aug-10 15:00N 55°36' W 132°18'2120.7 140 / 61019.110.8 12.3 14.0
2018-Aug-10 14:00N 55°54' W 132°36'9111.3 170 / 51018.610.8 12.8 14.0
2018-Aug-10 06:00N 57°12' W 134°00'1515.4 240 / 221013.710.8 13.210.912.0
2018-Aug-10 05:00N 57°24' W 133°42'2424.2 220 / 221013.110.8 13.210.312.0
2018-Aug-10 04:00N 57°48' W 133°48'36 4.4 170 / 241012.110.8 12.311.012.0
2018-Aug-09 20:00N 58°18' W 134°24'0 0.0 140 / 101005.910.8 14.314.112.0
2018-Aug-09 19:00N 58°18' W 134°24'44 3.7 130 / 121005.810.8 14.814.512.0
2018-Aug-09 07:00N 58°54' W 135°12'1212.0 200 / 291005.010.8 14.013.812.0
2018-Aug-09 06:00N 59°06' W 135°12'9 2.1 160 / 221006.0 5.4 13.613.212.0
2018-Aug-09 02:00N 59°12' W 135°24'27401370.2 140 / 201007.3 2.2 14.0 13.0
2018-Aug-09 00:00N 59°12' E 135°24'2774198.1 170 / 161009.3 5.4 14.0 10.0
2018-Aug-08 10:00N 58°36' W 135°06'3010.1 160 / 211008.3 5.4 14.3
2018-Aug-08 07:00N 58°06' W 135°00'13 8.4 150 / 371009.210.8 13.913.412.0
2018-Aug-08 05:27N 58°11' W 135°23'1 2.5
2018-Aug-08 05:00N 58°12' W 135°24'3508.6 120 / 171010.110.8 15.014.812.0
2018-Aug-08 04:59N 58°13' W 135°29'4 8.8
2018-Aug-08 04:30N 58°15' W 135°37'5 9.6
2018-Aug-08 04:00N 58°17' W 135°44'179.2
2018-Aug-08 04:00N 58°18' W 135°42'611.9 120 / 251010.410.8 14.213.812.0
2018-Aug-08 03:29N 58°19' W 135°53'5 9.8
2018-Aug-08 03:00N 58°23' W 135°58'5 9.2
2018-Aug-08 02:30N 58°28' W 136°02'612.8
2018-Aug-08 02:00N 58°34' W 136°04'713.1
2018-Aug-08 01:30N 58°40' W 136°06'612.9
2018-Aug-08 01:00N 58°44' W 136°15'813.0
2018-Aug-08 00:22N 58°49' W 136°29'14 3.2
2018-Aug-07 20:00N 58°54' W 136°54'1212.4 280 / 91015.3 2.2 8.3 8.3 8.0
2018-Aug-07 19:00N 58°54' W 136°30'910.8 010 / 81015.3 5.4 11.511.511.0
2018-Aug-07 18:07N 58°46' W 136°21'432.9
2018-Aug-07 18:00N 58°42' W 136°18'220.3 110 / 251015.3 5.4 13.013.012.0
2018-Aug-07 17:53N 58°44' W 136°16'615.0
2018-Aug-07 17:30N 58°39' W 136°09'714.9
2018-Aug-07 17:01N 58°32' W 136°04'3171.9
2018-Aug-07 17:00N 58°30' W 136°00'5 9.8 150 / 161014.2 2.2 12.5
2018-Aug-07 16:30N 58°25' W 135°58'612.3
2018-Aug-07 16:00N 58°20' W 136°03'2713.5
2018-Aug-07 14:00N 58°06' W 136°48'8412.0 190 / 341012.5 2.2 13.2
2018-Aug-07 07:00N 58°36' W 139°18'1413.9 190 / 101013.6 1.1 13.613.212.0
2018-Aug-07 06:00N 58°42' W 139°42'1212.5 220 / 201013.7 0.5 13.813.612.0
2018-Aug-07 05:00N 58°42' W 140°06'1212.5 240 / 151013.6 2.2 13.713.512.0
2018-Aug-07 04:00N 58°42' W 140°30'2612.8 220 / 201013.1 1.1 13.813.412.0
2018-Aug-07 02:00N 58°48' W 141°18'1212.4 230 / 171014.1 2.2 14.0
2018-Aug-07 01:00N 58°48' W 141°42'3210.5 210 / 171014.0 5.4 14.1
2018-Aug-06 22:00N 58°54' W 142°42'3115.5 230 / 191017.3 5.4 14.0 10.0
2018-Aug-06 20:00N 58°54' W 143°42'1413.8 220 / 231014.310.8 13.813.412.0
2018-Aug-06 19:00N 59°00' W 144°06'3812.5 220 / 251014.010.8 13.613.212.0
2018-Aug-06 16:00N 59°06' W 145°18'1515.4 220 / 241013.7 5.4 13.0 13.0
2018-Aug-06 15:00N 59°06' W 145°48'   210 / 271014.1 5.4 13.0 13.0

Dump ship's entire track history